sensor_id;sensor_type;location;lat;lon;timestamp;pressure;altitude;pressure_sealevel;temperature;humidity
72612;BME280;60655;52.182;4.474;2023-02-26T00:00:18;102059.09;;;4.98;71.51
72612;BME280;60655;52.182;4.474;2023-02-26T00:02:20;102029.34;;;4.70;72.44
72612;BME280;60655;52.182;4.474;2023-02-26T00:04:21;102068.03;;;5.05;72.16
72612;BME280;60655;52.182;4.474;2023-02-26T00:06:23;102057.88;;;4.93;71.75
72612;BME280;60655;52.182;4.474;2023-02-26T00:08:25;102066.53;;;5.03;71.55
72612;BME280;60655;52.182;4.474;2023-02-26T00:10:26;102073.63;;;5.02;71.47
72612;BME280;60655;52.182;4.474;2023-02-26T00:12:28;102069.22;;;4.93;72.26
72612;BME280;60655;52.182;4.474;2023-02-26T00:14:30;102077.97;;;4.94;71.85
72612;BME280;60655;52.182;4.474;2023-02-26T00:16:34;102079.31;;;4.98;72.00
72612;BME280;60655;52.182;4.474;2023-02-26T00:18:36;102081.41;;;4.77;72.74
72612;BME280;60655;52.182;4.474;2023-02-26T00:20:37;102081.84;;;4.72;70.80
72612;BME280;60655;52.182;4.474;2023-02-26T00:22:39;102079.59;;;4.77;72.94
72612;BME280;60655;52.182;4.474;2023-02-26T00:24:40;102087.44;;;4.87;72.74
72612;BME280;60655;52.182;4.474;2023-02-26T00:26:42;102092.41;;;4.90;72.21
72612;BME280;60655;52.182;4.474;2023-02-26T00:28:43;102091.88;;;4.86;72.84
72612;BME280;60655;52.182;4.474;2023-02-26T00:30:44;102090.38;;;4.84;72.97
72612;BME280;60655;52.182;4.474;2023-02-26T00:32:45;102104.66;;;4.81;73.39
72612;BME280;60655;52.182;4.474;2023-02-26T00:34:47;102106.75;;;4.78;73.45
72612;BME280;60655;52.182;4.474;2023-02-26T00:41:41;102123.00;;;4.63;70.46
72612;BME280;60655;52.182;4.474;2023-02-26T00:43:42;102129.91;;;4.74;72.51
72612;BME280;60655;52.182;4.474;2023-02-26T00:48:29;102128.00;;;4.66;71.56
72612;BME280;60655;52.182;4.474;2023-02-26T00:50:35;102129.72;;;4.85;72.01
72612;BME280;60655;52.182;4.474;2023-02-26T00:53:12;102126.47;;;4.64;68.59
72612;BME280;60655;52.182;4.474;2023-02-26T00:55:17;102127.94;;;4.76;70.30
72612;BME280;60655;52.182;4.474;2023-02-26T00:57:19;102132.56;;;4.92;70.72
72612;BME280;60655;52.182;4.474;2023-02-26T00:59:21;102125.91;;;4.70;68.81
72612;BME280;60655;52.182;4.474;2023-02-26T01:01:22;102136.28;;;4.71;67.80
72612;BME280;60655;52.182;4.474;2023-02-26T01:03:23;102137.91;;;4.55;68.47
72612;BME280;60655;52.182;4.474;2023-02-26T01:05:25;102131.88;;;4.62;68.92
72612;BME280;60655;52.182;4.474;2023-02-26T01:07:27;102145.84;;;4.72;68.22
72612;BME280;60655;52.182;4.474;2023-02-26T01:09:32;102144.88;;;4.73;68.40
72612;BME280;60655;52.182;4.474;2023-02-26T01:11:35;102146.22;;;4.78;69.40
72612;BME280;60655;52.182;4.474;2023-02-26T01:13:36;102139.94;;;4.61;66.83
72612;BME280;60655;52.182;4.474;2023-02-26T01:15:37;102158.31;;;4.70;67.64
72612;BME280;60655;52.182;4.474;2023-02-26T01:17:43;102146.41;;;4.66;66.95
72612;BME280;60655;52.182;4.474;2023-02-26T01:19:52;102158.84;;;4.74;70.31
72612;BME280;60655;52.182;4.474;2023-02-26T01:22:00;102150.13;;;4.73;66.27
72612;BME280;60655;52.182;4.474;2023-02-26T01:24:05;102160.31;;;4.59;66.88
72612;BME280;60655;52.182;4.474;2023-02-26T01:26:14;102156.78;;;4.68;66.44
72612;BME280;60655;52.182;4.474;2023-02-26T01:28:17;102165.78;;;4.75;65.33
72612;BME280;60655;52.182;4.474;2023-02-26T01:30:19;102159.19;;;4.61;64.63
72612;BME280;60655;52.182;4.474;2023-02-26T01:34:36;102175.41;;;4.57;64.25
72612;BME280;60655;52.182;4.474;2023-02-26T01:36:52;102179.34;;;4.33;62.80
72612;BME280;60655;52.182;4.474;2023-02-26T01:39:02;102182.25;;;4.40;64.32
72612;BME280;60655;52.182;4.474;2023-02-26T01:43:38;102173.78;;;4.46;65.89
72612;BME280;60655;52.182;4.474;2023-02-26T01:48:37;102188.47;;;4.39;62.04
72612;BME280;60655;52.182;4.474;2023-02-26T01:50:44;102187.22;;;4.33;64.51
72612;BME280;60655;52.182;4.474;2023-02-26T01:54:48;102190.25;;;4.58;66.87
72612;BME280;60655;52.182;4.474;2023-02-26T01:56:53;102182.28;;;4.67;67.64
72612;BME280;60655;52.182;4.474;2023-02-26T01:58:56;102189.00;;;4.52;64.33
72612;BME280;60655;52.182;4.474;2023-02-26T02:00:57;102201.34;;;4.52;66.39
72612;BME280;60655;52.182;4.474;2023-02-26T02:02:58;102194.69;;;4.48;64.67
72612;BME280;60655;52.182;4.474;2023-02-26T02:05:06;102196.63;;;4.46;66.22
72612;BME280;60655;52.182;4.474;2023-02-26T02:07:10;102193.25;;;4.63;67.76
72612;BME280;60655;52.182;4.474;2023-02-26T02:09:12;102207.84;;;4.57;66.54
72612;BME280;60655;52.182;4.474;2023-02-26T02:11:13;102210.69;;;4.64;67.56
72612;BME280;60655;52.182;4.474;2023-02-26T02:15:44;102210.47;;;4.57;66.16
72612;BME280;60655;52.182;4.474;2023-02-26T02:22:32;102225.31;;;4.39;66.84
72612;BME280;60655;52.182;4.474;2023-02-26T02:32:29;102225.47;;;4.28;66.37
72612;BME280;60655;52.182;4.474;2023-02-26T02:34:45;102235.41;;;4.34;66.35
72612;BME280;60655;52.182;4.474;2023-02-26T02:37:11;102240.53;;;4.55;68.24
72612;BME280;60655;52.182;4.474;2023-02-26T02:39:18;102241.63;;;4.43;65.35
72612;BME280;60655;52.182;4.474;2023-02-26T02:41:26;102242.19;;;4.36;64.09
72612;BME280;60655;52.182;4.474;2023-02-26T02:43:32;102242.59;;;4.51;66.14
72612;BME280;60655;52.182;4.474;2023-02-26T02:45:44;102255.56;;;4.62;66.58
72612;BME280;60655;52.182;4.474;2023-02-26T02:47:53;102254.38;;;4.47;65.69
72612;BME280;60655;52.182;4.474;2023-02-26T02:50:18;102249.84;;;4.20;63.02
72612;BME280;60655;52.182;4.474;2023-02-26T02:52:28;102255.34;;;4.36;66.51
72612;BME280;60655;52.182;4.474;2023-02-26T02:55:00;102253.16;;;4.32;66.68
72612;BME280;60655;52.182;4.474;2023-02-26T02:57:12;102246.53;;;4.28;66.15
72612;BME280;60655;52.182;4.474;2023-02-26T02:59:33;102254.94;;;4.41;66.49
72612;BME280;60655;52.182;4.474;2023-02-26T03:01:38;102257.88;;;4.19;66.23
72612;BME280;60655;52.182;4.474;2023-02-26T03:04:02;102264.78;;;4.20;66.60
72612;BME280;60655;52.182;4.474;2023-02-26T03:06:06;102244.59;;;4.01;66.24
72612;BME280;60655;52.182;4.474;2023-02-26T03:08:12;102235.75;;;3.92;64.25
72612;BME280;60655;52.182;4.474;2023-02-26T03:10:16;102274.63;;;4.18;67.00
72612;BME280;60655;52.182;4.474;2023-02-26T03:12:17;102269.06;;;4.11;66.29
72612;BME280;60655;52.182;4.474;2023-02-26T03:14:18;102281.53;;;4.09;66.01
72612;BME280;60655;52.182;4.474;2023-02-26T03:21:48;102277.41;;;4.26;67.85
72612;BME280;60655;52.182;4.474;2023-02-26T03:26:19;102289.56;;;3.88;66.76
72612;BME280;60655;52.182;4.474;2023-02-26T03:30:36;102297.41;;;3.79;67.07
72612;BME280;60655;52.182;4.474;2023-02-26T03:32:50;102294.13;;;3.86;67.79
72612;BME280;60655;52.182;4.474;2023-02-26T03:37:32;102297.84;;;3.84;66.82
72612;BME280;60655;52.182;4.474;2023-02-26T03:39:45;102295.72;;;3.58;68.03
72612;BME280;60655;52.182;4.474;2023-02-26T03:41:55;102289.09;;;3.64;67.22
72612;BME280;60655;52.182;4.474;2023-02-26T03:44:02;102307.53;;;3.73;67.96
72612;BME280;60655;52.182;4.474;2023-02-26T03:46:08;102304.84;;;3.54;67.48
72612;BME280;60655;52.182;4.474;2023-02-26T03:48:15;102310.47;;;3.50;68.20
72612;BME280;60655;52.182;4.474;2023-02-26T03:52:29;102313.81;;;3.52;67.91
72612;BME280;60655;52.182;4.474;2023-02-26T03:54:55;102317.44;;;3.60;67.51
72612;BME280;60655;52.182;4.474;2023-02-26T03:56:57;102321.03;;;3.59;68.63
72612;BME280;60655;52.182;4.474;2023-02-26T03:58:58;102314.41;;;3.65;67.59
72612;BME280;60655;52.182;4.474;2023-02-26T04:01:06;102320.06;;;3.60;68.99
72612;BME280;60655;52.182;4.474;2023-02-26T04:03:19;102319.06;;;3.52;67.94
72612;BME280;60655;52.182;4.474;2023-02-26T04:05:27;102314.28;;;3.66;69.61
72612;BME280;60655;52.182;4.474;2023-02-26T04:07:29;102321.16;;;3.58;68.01
72612;BME280;60655;52.182;4.474;2023-02-26T04:09:30;102323.78;;;3.58;67.24
72612;BME280;60655;52.182;4.474;2023-02-26T04:11:31;102323.34;;;3.53;67.46
72612;BME280;60655;52.182;4.474;2023-02-26T04:13:32;102315.94;;;3.27;69.35
72612;BME280;60655;52.182;4.474;2023-02-26T04:15:33;102331.19;;;3.33;66.91
72612;BME280;60655;52.182;4.474;2023-02-26T04:17:34;102336.50;;;3.53;68.96
72612;BME280;60655;52.182;4.474;2023-02-26T04:19:35;102334.56;;;3.55;69.58
72612;BME280;60655;52.182;4.474;2023-02-26T04:21:36;102338.06;;;3.65;69.27
72612;BME280;60655;52.182;4.474;2023-02-26T04:23:37;102338.84;;;3.56;68.06
72612;BME280;60655;52.182;4.474;2023-02-26T04:25:38;102340.69;;;3.65;69.51
72612;BME280;60655;52.182;4.474;2023-02-26T04:27:39;102328.16;;;3.48;68.34
72612;BME280;60655;52.182;4.474;2023-02-26T04:29:40;102325.16;;;3.52;68.43
72612;BME280;60655;52.182;4.474;2023-02-26T04:31:41;102333.59;;;3.56;68.12
72612;BME280;60655;52.182;4.474;2023-02-26T04:33:42;102343.66;;;3.51;68.08
72612;BME280;60655;52.182;4.474;2023-02-26T04:35:43;102341.75;;;3.53;67.92
72612;BME280;60655;52.182;4.474;2023-02-26T04:37:44;102324.47;;;3.20;69.05
72612;BME280;60655;52.182;4.474;2023-02-26T04:39:45;102358.31;;;3.44;68.19
72612;BME280;60655;52.182;4.474;2023-02-26T04:41:46;102359.69;;;3.38;64.56
72612;BME280;60655;52.182;4.474;2023-02-26T04:43:47;102366.72;;;3.37;68.81
72612;BME280;60655;52.182;4.474;2023-02-26T04:45:48;102363.97;;;3.18;65.56
72612;BME280;60655;52.182;4.474;2023-02-26T04:47:49;102370.44;;;3.35;68.18
72612;BME280;60655;52.182;4.474;2023-02-26T04:49:50;102371.31;;;3.45;65.68
72612;BME280;60655;52.182;4.474;2023-02-26T04:51:51;102368.53;;;3.37;66.04
72612;BME280;60655;52.182;4.474;2023-02-26T04:53:52;102362.63;;;3.45;68.53
72612;BME280;60655;52.182;4.474;2023-02-26T04:55:53;102369.94;;;3.41;65.96
72612;BME280;60655;52.182;4.474;2023-02-26T04:57:54;102365.78;;;3.48;67.16
72612;BME280;60655;52.182;4.474;2023-02-26T04:59:55;102377.69;;;3.52;64.38
72612;BME280;60655;52.182;4.474;2023-02-26T05:01:56;102375.13;;;3.31;63.77
72612;BME280;60655;52.182;4.474;2023-02-26T05:03:57;102379.59;;;3.41;67.02
72612;BME280;60655;52.182;4.474;2023-02-26T05:05:58;102383.88;;;3.42;66.40
72612;BME280;60655;52.182;4.474;2023-02-26T05:07:59;102379.72;;;3.39;63.33
72612;BME280;60655;52.182;4.474;2023-02-26T05:10:00;102377.94;;;3.19;63.21
72612;BME280;60655;52.182;4.474;2023-02-26T05:12:01;102385.06;;;3.07;63.65
72612;BME280;60655;52.182;4.474;2023-02-26T05:14:02;102386.31;;;3.33;65.38
72612;BME280;60655;52.182;4.474;2023-02-26T05:16:03;102387.59;;;3.39;67.12
72612;BME280;60655;52.182;4.474;2023-02-26T05:18:04;102390.38;;;3.37;64.40
72612;BME280;60655;52.182;4.474;2023-02-26T05:20:06;102386.50;;;3.42;68.99
72612;BME280;60655;52.182;4.474;2023-02-26T05:22:09;102389.28;;;3.19;61.52
72612;BME280;60655;52.182;4.474;2023-02-26T05:24:10;102396.31;;;3.19;63.86
72612;BME280;60655;52.182;4.474;2023-02-26T05:26:11;102388.06;;;3.44;69.03
72612;BME280;60655;52.182;4.474;2023-02-26T05:28:14;102393.94;;;3.36;64.81
72612;BME280;60655;52.182;4.474;2023-02-26T05:30:16;102400.63;;;3.41;65.51
72612;BME280;60655;52.182;4.474;2023-02-26T05:32:17;102397.81;;;3.12;64.06
72612;BME280;60655;52.182;4.474;2023-02-26T05:34:18;102405.44;;;3.15;65.45
72612;BME280;60655;52.182;4.474;2023-02-26T05:36:19;102403.06;;;2.91;63.20
72612;BME280;60655;52.182;4.474;2023-02-26T05:38:20;102417.53;;;3.06;67.42
72612;BME280;60655;52.182;4.474;2023-02-26T05:40:23;102400.34;;;3.23;67.92
72612;BME280;60655;52.182;4.474;2023-02-26T05:42:24;102403.75;;;3.34;68.21
72612;BME280;60655;52.182;4.474;2023-02-26T05:44:25;102402.69;;;3.16;65.45
72612;BME280;60655;52.182;4.474;2023-02-26T05:46:26;102414.72;;;3.49;69.07
72612;BME280;60655;52.182;4.474;2023-02-26T05:48:27;102423.41;;;3.40;68.36
72612;BME280;60655;52.182;4.474;2023-02-26T05:50:28;102418.50;;;3.26;66.36
72612;BME280;60655;52.182;4.474;2023-02-26T05:52:30;102424.69;;;3.46;67.47
72612;BME280;60655;52.182;4.474;2023-02-26T05:54:31;102428.19;;;3.56;70.49
72612;BME280;60655;52.182;4.474;2023-02-26T05:56:31;102429.13;;;3.45;68.66
72612;BME280;60655;52.182;4.474;2023-02-26T05:58:32;102424.50;;;3.37;67.40
72612;BME280;60655;52.182;4.474;2023-02-26T06:00:33;102429.94;;;3.46;68.96
72612;BME280;60655;52.182;4.474;2023-02-26T06:02:34;102434.22;;;3.47;67.39
72612;BME280;60655;52.182;4.474;2023-02-26T06:04:35;102430.84;;;3.35;68.73
72612;BME280;60655;52.182;4.474;2023-02-26T06:06:36;102434.31;;;3.35;69.38
72612;BME280;60655;52.182;4.474;2023-02-26T06:08:37;102436.66;;;3.18;67.37
72612;BME280;60655;52.182;4.474;2023-02-26T06:10:38;102453.34;;;3.28;69.73
72612;BME280;60655;52.182;4.474;2023-02-26T06:12:39;102461.28;;;3.37;67.78
72612;BME280;60655;52.182;4.474;2023-02-26T06:14:40;102449.81;;;3.38;70.12
72612;BME280;60655;52.182;4.474;2023-02-26T06:16:41;102469.34;;;3.46;69.75
72612;BME280;60655;52.182;4.474;2023-02-26T06:18:42;102461.91;;;3.30;67.54
72612;BME280;60655;52.182;4.474;2023-02-26T06:20:43;102473.25;;;3.30;69.58
72612;BME280;60655;52.182;4.474;2023-02-26T06:22:44;102476.13;;;3.27;66.74
72612;BME280;60655;52.182;4.474;2023-02-26T06:24:45;102486.00;;;3.35;67.65
72612;BME280;60655;52.182;4.474;2023-02-26T06:26:46;102479.22;;;3.12;68.16
72612;BME280;60655;52.182;4.474;2023-02-26T06:28:47;102486.00;;;3.35;66.88
72612;BME280;60655;52.182;4.474;2023-02-26T06:30:48;102474.56;;;3.15;68.07
72612;BME280;60655;52.182;4.474;2023-02-26T06:32:49;102488.50;;;3.16;68.16
72612;BME280;60655;52.182;4.474;2023-02-26T06:34:51;102486.25;;;3.11;70.22
72612;BME280;60655;52.182;4.474;2023-02-26T06:36:52;102490.22;;;3.26;70.02
72612;BME280;60655;52.182;4.474;2023-02-26T06:38:53;102484.53;;;3.21;66.77
72612;BME280;60655;52.182;4.474;2023-02-26T06:40:54;102499.69;;;3.18;67.74
72612;BME280;60655;52.182;4.474;2023-02-26T06:42:55;102499.50;;;3.10;69.77
72612;BME280;60655;52.182;4.474;2023-02-26T06:44:56;102505.38;;;3.02;69.22
72612;BME280;60655;52.182;4.474;2023-02-26T06:46:57;102513.25;;;3.34;70.36
72612;BME280;60655;52.182;4.474;2023-02-26T06:48:58;102514.16;;;3.44;69.45
72612;BME280;60655;52.182;4.474;2023-02-26T06:51:00;102514.94;;;3.24;69.95
72612;BME280;60655;52.182;4.474;2023-02-26T06:53:01;102520.28;;;3.33;69.98
72612;BME280;60655;52.182;4.474;2023-02-26T06:55:03;102514.19;;;3.12;68.59
72612;BME280;60655;52.182;4.474;2023-02-26T06:57:04;102528.78;;;3.26;69.22
72612;BME280;60655;52.182;4.474;2023-02-26T06:59:05;102540.59;;;3.31;70.07
72612;BME280;60655;52.182;4.474;2023-02-26T07:01:06;102536.84;;;3.13;69.38
72612;BME280;60655;52.182;4.474;2023-02-26T07:03:13;102521.13;;;3.02;70.02
72612;BME280;60655;52.182;4.474;2023-02-26T07:05:14;102530.81;;;3.22;69.75
72612;BME280;60655;52.182;4.474;2023-02-26T07:07:15;102538.03;;;3.41;70.15
72612;BME280;60655;52.182;4.474;2023-02-26T07:09:16;102539.16;;;3.27;69.17
72612;BME280;60655;52.182;4.474;2023-02-26T07:11:19;102540.84;;;3.28;69.29
72612;BME280;60655;52.182;4.474;2023-02-26T07:13:20;102544.03;;;3.32;69.44
72612;BME280;60655;52.182;4.474;2023-02-26T07:15:21;102554.81;;;3.29;69.14
72612;BME280;60655;52.182;4.474;2023-02-26T07:17:22;102546.41;;;3.35;69.56
72612;BME280;60655;52.182;4.474;2023-02-26T07:19:23;102549.75;;;3.37;69.50
72612;BME280;60655;52.182;4.474;2023-02-26T07:21:24;102559.94;;;3.30;68.04
72612;BME280;60655;52.182;4.474;2023-02-26T07:23:25;102547.53;;;3.21;69.93
72612;BME280;60655;52.182;4.474;2023-02-26T07:25:27;102558.59;;;3.36;69.46
72612;BME280;60655;52.182;4.474;2023-02-26T07:27:28;102562.63;;;3.40;69.53
72612;BME280;60655;52.182;4.474;2023-02-26T07:29:29;102559.19;;;3.39;67.39
72612;BME280;60655;52.182;4.474;2023-02-26T07:31:31;102561.59;;;3.31;68.64
72612;BME280;60655;52.182;4.474;2023-02-26T07:33:32;102576.41;;;3.32;68.13
72612;BME280;60655;52.182;4.474;2023-02-26T07:35:34;102579.28;;;3.29;67.13
72612;BME280;60655;52.182;4.474;2023-02-26T07:37:36;102584.16;;;3.34;64.41
72612;BME280;60655;52.182;4.474;2023-02-26T07:39:37;102580.22;;;3.28;64.82
72612;BME280;60655;52.182;4.474;2023-02-26T07:41:37;102582.81;;;3.39;66.49
72612;BME280;60655;52.182;4.474;2023-02-26T07:43:38;102588.53;;;3.45;65.38
72612;BME280;60655;52.182;4.474;2023-02-26T07:45:39;102585.13;;;3.54;68.45
72612;BME280;60655;52.182;4.474;2023-02-26T07:47:41;102595.88;;;3.51;63.95
72612;BME280;60655;52.182;4.474;2023-02-26T07:49:42;102589.38;;;3.66;67.88
72612;BME280;60655;52.182;4.474;2023-02-26T07:51:43;102600.56;;;3.47;63.78
72612;BME280;60655;52.182;4.474;2023-02-26T07:53:45;102597.25;;;3.66;66.26
72612;BME280;60655;52.182;4.474;2023-02-26T07:55:46;102586.28;;;3.61;65.71
72612;BME280;60655;52.182;4.474;2023-02-26T07:57:47;102589.72;;;3.72;64.59
72612;BME280;60655;52.182;4.474;2023-02-26T07:59:48;102604.81;;;3.59;64.25
72612;BME280;60655;52.182;4.474;2023-02-26T08:01:49;102606.03;;;3.76;64.46
72612;BME280;60655;52.182;4.474;2023-02-26T08:03:50;102595.47;;;3.66;62.70
72612;BME280;60655;52.182;4.474;2023-02-26T08:05:52;102600.91;;;3.95;68.60
72612;BME280;60655;52.182;4.474;2023-02-26T08:07:53;102603.41;;;3.76;65.34
72612;BME280;60655;52.182;4.474;2023-02-26T08:09:54;102608.47;;;3.89;65.18
72612;BME280;60655;52.182;4.474;2023-02-26T08:11:55;102606.19;;;3.75;66.38
72612;BME280;60655;52.182;4.474;2023-02-26T08:13:56;102617.81;;;3.82;64.29
72612;BME280;60655;52.182;4.474;2023-02-26T08:15:57;102629.88;;;3.63;61.80
72612;BME280;60655;52.182;4.474;2023-02-26T08:17:58;102583.53;;;3.83;67.59
72612;BME280;60655;52.182;4.474;2023-02-26T08:19:59;102618.59;;;4.14;63.83
72612;BME280;60655;52.182;4.474;2023-02-26T08:22:00;102620.59;;;4.01;60.33
72612;BME280;60655;52.182;4.474;2023-02-26T08:24:01;102633.63;;;4.02;58.54
72612;BME280;60655;52.182;4.474;2023-02-26T08:26:04;102636.47;;;4.20;66.76
72612;BME280;60655;52.182;4.474;2023-02-26T08:28:05;102634.50;;;4.13;63.44
72612;BME280;60655;52.182;4.474;2023-02-26T08:30:07;102634.75;;;4.10;61.15
72612;BME280;60655;52.182;4.474;2023-02-26T08:32:08;102635.78;;;4.18;63.75
72612;BME280;60655;52.182;4.474;2023-02-26T08:34:09;102640.78;;;4.21;61.96
72612;BME280;60655;52.182;4.474;2023-02-26T08:36:10;102644.84;;;4.35;63.48
72612;BME280;60655;52.182;4.474;2023-02-26T08:38:11;102643.72;;;4.28;64.76
72612;BME280;60655;52.182;4.474;2023-02-26T08:40:13;102653.78;;;4.44;64.85
72612;BME280;60655;52.182;4.474;2023-02-26T08:42:13;102656.13;;;4.47;63.32
72612;BME280;60655;52.182;4.474;2023-02-26T08:44:16;102652.53;;;4.78;65.59
72612;BME280;60655;52.182;4.474;2023-02-26T08:46:17;102659.59;;;4.47;61.29
72612;BME280;60655;52.182;4.474;2023-02-26T08:48:18;102664.41;;;4.32;60.79
72612;BME280;60655;52.182;4.474;2023-02-26T08:50:19;102672.13;;;4.34;62.08
72612;BME280;60655;52.182;4.474;2023-02-26T08:52:20;102668.84;;;4.41;62.74
72612;BME280;60655;52.182;4.474;2023-02-26T08:54:21;102666.28;;;4.51;60.21
72612;BME280;60655;52.182;4.474;2023-02-26T08:56:22;102676.56;;;4.64;62.08
72612;BME280;60655;52.182;4.474;2023-02-26T08:58:24;102668.38;;;4.57;59.21
72612;BME280;60655;52.182;4.474;2023-02-26T09:00:25;102670.56;;;4.83;62.53
72612;BME280;60655;52.182;4.474;2023-02-26T09:02:26;102682.00;;;4.72;59.13
72612;BME280;60655;52.182;4.474;2023-02-26T09:04:27;102684.44;;;4.85;60.68
72612;BME280;60655;52.182;4.474;2023-02-26T09:06:28;102678.84;;;4.78;58.53
72612;BME280;60655;52.182;4.474;2023-02-26T09:08:30;102689.97;;;4.82;58.33
72612;BME280;60655;52.182;4.474;2023-02-26T09:10:34;102683.59;;;4.94;61.68
72612;BME280;60655;52.182;4.474;2023-02-26T09:12:35;102688.16;;;4.82;56.95
72612;BME280;60655;52.182;4.474;2023-02-26T09:14:36;102687.22;;;4.62;55.07
72612;BME280;60655;52.182;4.474;2023-02-26T09:16:37;102684.25;;;4.77;55.52
72612;BME280;60655;52.182;4.474;2023-02-26T09:18:38;102691.88;;;4.80;59.47
72612;BME280;60655;52.182;4.474;2023-02-26T09:20:43;102709.22;;;4.82;58.06
72612;BME280;60655;52.182;4.474;2023-02-26T09:22:44;102699.53;;;4.92;56.51
72612;BME280;60655;52.182;4.474;2023-02-26T09:24:45;102710.91;;;4.83;54.57
72612;BME280;60655;52.182;4.474;2023-02-26T09:26:46;102724.22;;;4.91;57.87
72612;BME280;60655;52.182;4.474;2023-02-26T09:28:47;102712.97;;;4.80;54.88
72612;BME280;60655;52.182;4.474;2023-02-26T09:30:52;102716.69;;;4.77;55.52
72612;BME280;60655;52.182;4.474;2023-02-26T09:32:53;102711.72;;;4.84;57.92
72612;BME280;60655;52.182;4.474;2023-02-26T09:34:54;102725.34;;;4.89;57.52
72612;BME280;60655;52.182;4.474;2023-02-26T09:36:55;102722.59;;;5.00;56.00
72612;BME280;60655;52.182;4.474;2023-02-26T09:38:56;102725.66;;;5.05;54.62
72612;BME280;60655;52.182;4.474;2023-02-26T09:41:00;102718.19;;;5.10;57.87
72612;BME280;60655;52.182;4.474;2023-02-26T09:45:33;102728.72;;;5.10;54.47
72612;BME280;60655;52.182;4.474;2023-02-26T09:47:39;102732.50;;;5.17;55.26
72612;BME280;60655;52.182;4.474;2023-02-26T09:51:59;102742.16;;;5.47;57.55
72612;BME280;60655;52.182;4.474;2023-02-26T09:54:30;102746.97;;;5.32;56.95
72612;BME280;60655;52.182;4.474;2023-02-26T09:56:29;102747.81;;;5.52;57.73
72612;BME280;60655;52.182;4.474;2023-02-26T09:58:36;102745.31;;;5.51;54.17
72612;BME280;60655;52.182;4.474;2023-02-26T10:08:01;102738.72;;;5.66;57.78
72612;BME280;60655;52.182;4.474;2023-02-26T10:12:11;102745.31;;;5.51;54.10
72612;BME280;60655;52.182;4.474;2023-02-26T10:14:22;102751.44;;;5.41;53.94
72612;BME280;60655;52.182;4.474;2023-02-26T10:16:43;102764.47;;;5.53;57.59
72612;BME280;60655;52.182;4.474;2023-02-26T10:18:50;102767.53;;;5.48;53.43
72612;BME280;60655;52.182;4.474;2023-02-26T10:20:56;102760.34;;;5.60;54.32
72612;BME280;60655;52.182;4.474;2023-02-26T10:23:15;102758.69;;;5.68;57.04
72612;BME280;60655;52.182;4.474;2023-02-26T10:25:26;102774.00;;;5.94;54.80
72612;BME280;60655;52.182;4.474;2023-02-26T10:27:50;102769.31;;;5.97;55.28
72612;BME280;60655;52.182;4.474;2023-02-26T10:30:03;102777.34;;;5.96;53.46
72612;BME280;60655;52.182;4.474;2023-02-26T10:32:38;102765.50;;;5.71;53.17
72612;BME280;60655;52.182;4.474;2023-02-26T10:34:58;102779.09;;;5.66;50.86
72612;BME280;60655;52.182;4.474;2023-02-26T10:37:12;102776.00;;;5.52;52.28
72612;BME280;60655;52.182;4.474;2023-02-26T10:39:32;102789.50;;;5.68;56.94
72612;BME280;60655;52.182;4.474;2023-02-26T10:41:35;102783.28;;;5.88;58.82
72612;BME280;60655;52.182;4.474;2023-02-26T10:43:44;102793.03;;;6.07;56.10
72612;BME280;60655;52.182;4.474;2023-02-26T10:45:50;102795.91;;;5.85;54.24
72612;BME280;60655;52.182;4.474;2023-02-26T10:48:03;102795.88;;;5.65;52.18
72612;BME280;60655;52.182;4.474;2023-02-26T10:50:16;102791.16;;;5.78;52.58
72612;BME280;60655;52.182;4.474;2023-02-26T10:52:25;102797.00;;;5.82;53.96
72612;BME280;60655;52.182;4.474;2023-02-26T10:54:35;102805.13;;;6.00;54.48
72612;BME280;60655;52.182;4.474;2023-02-26T10:56:37;102807.06;;;5.98;53.33
72612;BME280;60655;52.182;4.474;2023-02-26T10:58:38;102798.25;;;5.88;53.40
72612;BME280;60655;52.182;4.474;2023-02-26T11:00:40;102809.69;;;6.07;53.90
72612;BME280;60655;52.182;4.474;2023-02-26T11:02:45;102808.19;;;6.15;54.38
72612;BME280;60655;52.182;4.474;2023-02-26T11:04:46;102806.53;;;6.33;56.70
72612;BME280;60655;52.182;4.474;2023-02-26T11:06:51;102814.56;;;6.51;52.80
72612;BME280;60655;52.182;4.474;2023-02-26T11:08:56;102800.38;;;6.42;54.12
72612;BME280;60655;52.182;4.474;2023-02-26T11:11:02;102796.22;;;6.39;54.38
72612;BME280;60655;52.182;4.474;2023-02-26T11:13:04;102814.00;;;6.47;51.78
72612;BME280;60655;52.182;4.474;2023-02-26T11:15:05;102808.06;;;6.26;53.04
72612;BME280;60655;52.182;4.474;2023-02-26T11:17:15;102804.44;;;6.27;52.79
72612;BME280;60655;52.182;4.474;2023-02-26T11:19:22;102798.88;;;6.30;52.84
72612;BME280;60655;52.182;4.474;2023-02-26T11:21:29;102812.75;;;6.41;51.56
72612;BME280;60655;52.182;4.474;2023-02-26T11:23:34;102802.59;;;6.47;52.66
72612;BME280;60655;52.182;4.474;2023-02-26T11:25:35;102803.03;;;6.61;53.95
72612;BME280;60655;52.182;4.474;2023-02-26T11:27:37;102810.34;;;6.67;51.64
72612;BME280;60655;52.182;4.474;2023-02-26T11:29:41;102776.28;;;6.64;51.91
72612;BME280;60655;52.182;4.474;2023-02-26T11:31:42;102806.16;;;6.84;52.23
72612;BME280;60655;52.182;4.474;2023-02-26T11:33:52;102803.78;;;6.91;48.93
72612;BME280;60655;52.182;4.474;2023-02-26T11:35:59;102800.53;;;6.97;48.40
72612;BME280;60655;52.182;4.474;2023-02-26T11:38:01;102804.47;;;6.93;49.11
72612;BME280;60655;52.182;4.474;2023-02-26T11:40:11;102802.81;;;6.82;49.20
72612;BME280;60655;52.182;4.474;2023-02-26T11:42:15;102809.09;;;6.71;52.19
72612;BME280;60655;52.182;4.474;2023-02-26T11:44:23;102807.31;;;6.62;49.57
72612;BME280;60655;52.182;4.474;2023-02-26T11:46:28;102801.31;;;6.70;53.19
72612;BME280;60655;52.182;4.474;2023-02-26T11:48:50;102806.44;;;6.81;50.64
72612;BME280;60655;52.182;4.474;2023-02-26T11:50:59;102804.06;;;6.88;50.41
72612;BME280;60655;52.182;4.474;2023-02-26T11:53:06;102795.25;;;6.97;49.31
72612;BME280;60655;52.182;4.474;2023-02-26T11:55:21;102788.56;;;7.02;50.08
72612;BME280;60655;52.182;4.474;2023-02-26T11:57:25;102793.59;;;6.96;49.06